sensor_id;sensor_type;location;lat;lon;timestamp;P1;durP1;ratioP1;P2;durP2;ratioP2
49440;SDS011;35317;51.978;6.296;2023-07-13T00:04:21;8.15;;;2.10;;
49440;SDS011;35317;51.978;6.296;2023-07-13T00:14:27;5.22;;;1.40;;
49440;SDS011;35317;51.978;6.296;2023-07-13T00:19:29;8.20;;;1.60;;
49440;SDS011;35317;51.978;6.296;2023-07-13T00:24:29;4.40;;;2.13;;
49440;SDS011;35317;51.978;6.296;2023-07-13T00:29:30;6.20;;;1.40;;
49440;SDS011;35317;51.978;6.296;2023-07-13T00:34:33;7.43;;;1.40;;
49440;SDS011;35317;51.978;6.296;2023-07-13T00:39:35;5.90;;;1.40;;
49440;SDS011;35317;51.978;6.296;2023-07-13T00:44:36;5.82;;;1.35;;
49440;SDS011;35317;51.978;6.296;2023-07-13T00:49:36;3.10;;;1.10;;
49440;SDS011;35317;51.978;6.296;2023-07-13T00:54:38;5.15;;;1.58;;
49440;SDS011;35317;51.978;6.296;2023-07-13T00:59:43;4.10;;;1.40;;
49440;SDS011;35317;51.978;6.296;2023-07-13T01:04:51;2.72;;;1.35;;
49440;SDS011;35317;51.978;6.296;2023-07-13T01:09:51;3.13;;;1.17;;
49440;SDS011;35317;51.978;6.296;2023-07-13T01:14:59;5.80;;;1.60;;
49440;SDS011;35317;51.978;6.296;2023-07-13T01:20:01;3.78;;;1.38;;
49440;SDS011;35317;51.978;6.296;2023-07-13T01:25:02;5.70;;;1.33;;
49440;SDS011;35317;51.978;6.296;2023-07-13T01:30:03;5.53;;;1.27;;
49440;SDS011;35317;51.978;6.296;2023-07-13T01:35:04;4.35;;;1.35;;
49440;SDS011;35317;51.978;6.296;2023-07-13T01:40:08;4.65;;;1.30;;
49440;SDS011;35317;51.978;6.296;2023-07-13T01:45:09;5.85;;;1.38;;
49440;SDS011;35317;51.978;6.296;2023-07-13T01:50:10;7.03;;;1.40;;
49440;SDS011;35317;51.978;6.296;2023-07-13T01:55:11;4.60;;;1.40;;
49440;SDS011;35317;51.978;6.296;2023-07-13T02:00:12;7.05;;;1.23;;
49440;SDS011;35317;51.978;6.296;2023-07-13T02:05:13;6.57;;;1.42;;
49440;SDS011;35317;51.978;6.296;2023-07-13T02:10:14;8.55;;;1.67;;
49440;SDS011;35317;51.978;6.296;2023-07-13T02:15:16;8.32;;;1.50;;
49440;SDS011;35317;51.978;6.296;2023-07-13T02:20:17;3.95;;;2.10;;
49440;SDS011;35317;51.978;6.296;2023-07-13T02:25:18;4.75;;;1.65;;
49440;SDS011;35317;51.978;6.296;2023-07-13T02:30:19;4.38;;;1.60;;
49440;SDS011;35317;51.978;6.296;2023-07-13T02:35:20;5.28;;;1.88;;
49440;SDS011;35317;51.978;6.296;2023-07-13T02:40:22;4.18;;;1.90;;
49440;SDS011;35317;51.978;6.296;2023-07-13T02:45:23;6.63;;;1.88;;
49440;SDS011;35317;51.978;6.296;2023-07-13T02:50:24;7.60;;;1.67;;
49440;SDS011;35317;51.978;6.296;2023-07-13T02:55:24;5.72;;;1.48;;
49440;SDS011;35317;51.978;6.296;2023-07-13T03:00:25;9.52;;;1.83;;
49440;SDS011;35317;51.978;6.296;2023-07-13T03:05:26;3.65;;;1.80;;
49440;SDS011;35317;51.978;6.296;2023-07-13T03:10:27;6.32;;;1.67;;
49440;SDS011;35317;51.978;6.296;2023-07-13T03:15:28;8.05;;;2.00;;
49440;SDS011;35317;51.978;6.296;2023-07-13T03:20:31;3.42;;;1.33;;
49440;SDS011;35317;51.978;6.296;2023-07-13T03:25:35;5.57;;;1.67;;
49440;SDS011;35317;51.978;6.296;2023-07-13T03:30:36;3.95;;;1.73;;
49440;SDS011;35317;51.978;6.296;2023-07-13T03:35:39;5.28;;;1.60;;
49440;SDS011;35317;51.978;6.296;2023-07-13T03:40:41;7.45;;;1.85;;
49440;SDS011;35317;51.978;6.296;2023-07-13T03:45:42;5.07;;;1.80;;
49440;SDS011;35317;51.978;6.296;2023-07-13T03:50:43;5.00;;;2.00;;
49440;SDS011;35317;51.978;6.296;2023-07-13T03:55:44;4.85;;;1.90;;
49440;SDS011;35317;51.978;6.296;2023-07-13T04:00:45;6.40;;;1.98;;
49440;SDS011;35317;51.978;6.296;2023-07-13T04:05:46;5.68;;;1.88;;
49440;SDS011;35317;51.978;6.296;2023-07-13T04:10:46;4.95;;;2.17;;
49440;SDS011;35317;51.978;6.296;2023-07-13T04:15:47;3.47;;;1.80;;
49440;SDS011;35317;51.978;6.296;2023-07-13T04:20:48;8.98;;;2.28;;
49440;SDS011;35317;51.978;6.296;2023-07-13T04:25:51;4.20;;;2.00;;
49440;SDS011;35317;51.978;6.296;2023-07-13T04:30:53;7.77;;;2.00;;
49440;SDS011;35317;51.978;6.296;2023-07-13T04:35:55;11.05;;;3.00;;
49440;SDS011;35317;51.978;6.296;2023-07-13T04:40:58;5.15;;;2.25;;
49440;SDS011;35317;51.978;6.296;2023-07-13T04:46:05;5.80;;;2.30;;
49440;SDS011;35317;51.978;6.296;2023-07-13T04:51:11;4.03;;;2.30;;
49440;SDS011;35317;51.978;6.296;2023-07-13T04:56:12;7.63;;;2.80;;
49440;SDS011;35317;51.978;6.296;2023-07-13T05:01:13;9.75;;;2.92;;
49440;SDS011;35317;51.978;6.296;2023-07-13T05:06:14;5.78;;;2.53;;
49440;SDS011;35317;51.978;6.296;2023-07-13T05:11:15;7.40;;;2.72;;
49440;SDS011;35317;51.978;6.296;2023-07-13T05:16:15;5.15;;;2.58;;
49440;SDS011;35317;51.978;6.296;2023-07-13T05:21:16;11.52;;;2.45;;
49440;SDS011;35317;51.978;6.296;2023-07-13T05:26:17;7.78;;;2.90;;
49440;SDS011;35317;51.978;6.296;2023-07-13T05:31:18;6.55;;;2.63;;
49440;SDS011;35317;51.978;6.296;2023-07-13T05:36:19;7.53;;;2.72;;
49440;SDS011;35317;51.978;6.296;2023-07-13T05:41:20;6.90;;;3.05;;
49440;SDS011;35317;51.978;6.296;2023-07-13T05:46:20;6.70;;;3.03;;
49440;SDS011;35317;51.978;6.296;2023-07-13T05:51:21;11.27;;;3.55;;
49440;SDS011;35317;51.978;6.296;2023-07-13T05:56:22;10.05;;;3.65;;
49440;SDS011;35317;51.978;6.296;2023-07-13T06:06:30;10.52;;;4.18;;
49440;SDS011;35317;51.978;6.296;2023-07-13T06:16:37;13.30;;;5.15;;
49440;SDS011;35317;51.978;6.296;2023-07-13T06:21:43;15.13;;;6.15;;
49440;SDS011;35317;51.978;6.296;2023-07-13T06:26:43;14.85;;;6.20;;
49440;SDS011;35317;51.978;6.296;2023-07-13T06:31:44;15.20;;;5.63;;
49440;SDS011;35317;51.978;6.296;2023-07-13T06:36:45;14.23;;;6.32;;
49440;SDS011;35317;51.978;6.296;2023-07-13T06:41:45;16.45;;;6.60;;
49440;SDS011;35317;51.978;6.296;2023-07-13T06:46:49;16.45;;;6.97;;
49440;SDS011;35317;51.978;6.296;2023-07-13T06:51:50;11.82;;;6.38;;
49440;SDS011;35317;51.978;6.296;2023-07-13T06:56:51;15.38;;;6.72;;
49440;SDS011;35317;51.978;6.296;2023-07-13T07:01:51;13.07;;;6.07;;
49440;SDS011;35317;51.978;6.296;2023-07-13T07:06:52;16.85;;;6.25;;
49440;SDS011;35317;51.978;6.296;2023-07-13T07:11:53;14.75;;;6.70;;
49440;SDS011;35317;51.978;6.296;2023-07-13T07:16:54;15.82;;;7.20;;
49440;SDS011;35317;51.978;6.296;2023-07-13T07:21:55;12.88;;;6.47;;
49440;SDS011;35317;51.978;6.296;2023-07-13T07:26:56;17.92;;;7.55;;
49440;SDS011;35317;51.978;6.296;2023-07-13T07:31:58;15.52;;;7.30;;
49440;SDS011;35317;51.978;6.296;2023-07-13T07:37:00;18.80;;;7.47;;
49440;SDS011;35317;51.978;6.296;2023-07-13T07:42:02;11.82;;;6.60;;
49440;SDS011;35317;51.978;6.296;2023-07-13T07:47:03;13.68;;;6.32;;
49440;SDS011;35317;51.978;6.296;2023-07-13T07:52:04;13.95;;;6.97;;
49440;SDS011;35317;51.978;6.296;2023-07-13T07:57:05;13.18;;;7.05;;
49440;SDS011;35317;51.978;6.296;2023-07-13T08:02:08;15.15;;;7.10;;
49440;SDS011;35317;51.978;6.296;2023-07-13T08:07:11;19.70;;;7.72;;
49440;SDS011;35317;51.978;6.296;2023-07-13T08:12:11;13.82;;;7.40;;
49440;SDS011;35317;51.978;6.296;2023-07-13T08:17:12;16.15;;;7.60;;
49440;SDS011;35317;51.978;6.296;2023-07-13T08:22:13;15.80;;;6.78;;
49440;SDS011;35317;51.978;6.296;2023-07-13T08:27:14;17.40;;;7.22;;
49440;SDS011;35317;51.978;6.296;2023-07-13T08:32:14;12.30;;;6.78;;
49440;SDS011;35317;51.978;6.296;2023-07-13T08:37:15;16.80;;;6.57;;
49440;SDS011;35317;51.978;6.296;2023-07-13T08:47:31;11.97;;;6.57;;
49440;SDS011;35317;51.978;6.296;2023-07-13T08:52:37;13.80;;;6.65;;
49440;SDS011;35317;51.978;6.296;2023-07-13T08:57:40;12.50;;;6.30;;
49440;SDS011;35317;51.978;6.296;2023-07-13T09:02:54;13.55;;;6.72;;
49440;SDS011;35317;51.978;6.296;2023-07-13T09:08:16;14.15;;;6.57;;
49440;SDS011;35317;51.978;6.296;2023-07-13T09:13:31;13.65;;;6.15;;
49440;SDS011;35317;51.978;6.296;2023-07-13T09:19:17;10.80;;;5.50;;
49440;SDS011;35317;51.978;6.296;2023-07-13T09:24:30;15.27;;;5.63;;
49440;SDS011;35317;51.978;6.296;2023-07-13T09:29:41;12.57;;;5.27;;
49440;SDS011;35317;51.978;6.296;2023-07-13T09:34:51;9.77;;;5.43;;
49440;SDS011;35317;51.978;6.296;2023-07-13T09:39:54;16.77;;;5.65;;
49440;SDS011;35317;51.978;6.296;2023-07-13T09:44:59;9.98;;;5.47;;
49440;SDS011;35317;51.978;6.296;2023-07-13T09:50:03;12.88;;;4.75;;
49440;SDS011;35317;51.978;6.296;2023-07-13T10:00:26;5.63;;;3.90;;
49440;SDS011;35317;51.978;6.296;2023-07-13T10:05:36;8.77;;;3.80;;
49440;SDS011;35317;51.978;6.296;2023-07-13T10:10:42;7.88;;;3.95;;
49440;SDS011;35317;51.978;6.296;2023-07-13T10:15:44;9.60;;;3.97;;
49440;SDS011;35317;51.978;6.296;2023-07-13T10:20:45;8.02;;;5.50;;
49440;SDS011;35317;51.978;6.296;2023-07-13T10:25:46;10.07;;;6.55;;
49440;SDS011;35317;51.978;6.296;2023-07-13T10:30:48;8.50;;;6.07;;
49440;SDS011;35317;51.978;6.296;2023-07-13T10:35:51;10.20;;;6.43;;
49440;SDS011;35317;51.978;6.296;2023-07-13T10:41:06;10.30;;;6.00;;
49440;SDS011;35317;51.978;6.296;2023-07-13T10:46:22;8.70;;;6.50;;
49440;SDS011;35317;51.978;6.296;2023-07-13T10:51:30;15.02;;;7.88;;
49440;SDS011;35317;51.978;6.296;2023-07-13T10:56:31;12.65;;;7.30;;
49440;SDS011;35317;51.978;6.296;2023-07-13T11:01:39;9.80;;;7.28;;
49440;SDS011;35317;51.978;6.296;2023-07-13T11:06:58;10.18;;;6.50;;
49440;SDS011;35317;51.978;6.296;2023-07-13T11:12:57;12.50;;;6.43;;
49440;SDS011;35317;51.978;6.296;2023-07-13T11:17:53;7.45;;;4.82;;
49440;SDS011;35317;51.978;6.296;2023-07-13T11:23:08;7.60;;;4.90;;
49440;SDS011;35317;51.978;6.296;2023-07-13T11:28:21;12.88;;;6.72;;
49440;SDS011;35317;51.978;6.296;2023-07-13T11:33:31;11.23;;;6.82;;
49440;SDS011;35317;51.978;6.296;2023-07-13T11:44:42;10.98;;;6.60;;
49440;SDS011;35317;51.978;6.296;2023-07-13T11:49:48;8.45;;;5.60;;
49440;SDS011;35317;51.978;6.296;2023-07-13T11:54:54;9.32;;;6.57;;
49440;SDS011;35317;51.978;6.296;2023-07-13T12:00:15;10.80;;;6.00;;
49440;SDS011;35317;51.978;6.296;2023-07-13T12:05:54;7.70;;;5.95;;
49440;SDS011;35317;51.978;6.296;2023-07-13T12:11:05;8.90;;;4.80;;
49440;SDS011;35317;51.978;6.296;2023-07-13T12:16:28;5.75;;;4.70;;
49440;SDS011;35317;51.978;6.296;2023-07-13T12:21:33;5.75;;;3.75;;
49440;SDS011;35317;51.978;6.296;2023-07-13T12:26:39;6.97;;;3.40;;
49440;SDS011;35317;51.978;6.296;2023-07-13T12:31:41;5.50;;;3.35;;
49440;SDS011;35317;51.978;6.296;2023-07-13T12:36:49;4.18;;;2.30;;
49440;SDS011;35317;51.978;6.296;2023-07-13T12:42:18;3.55;;;1.70;;
49440;SDS011;35317;51.978;6.296;2023-07-13T12:47:28;5.05;;;2.03;;
49440;SDS011;35317;51.978;6.296;2023-07-13T12:52:31;6.88;;;2.30;;
49440;SDS011;35317;51.978;6.296;2023-07-13T12:57:38;4.00;;;2.22;;
49440;SDS011;35317;51.978;6.296;2023-07-13T13:02:49;4.18;;;2.30;;
49440;SDS011;35317;51.978;6.296;2023-07-13T13:07:51;3.95;;;2.05;;
49440;SDS011;35317;51.978;6.296;2023-07-13T13:12:52;4.15;;;2.50;;
49440;SDS011;35317;51.978;6.296;2023-07-13T13:17:53;5.35;;;2.30;;
49440;SDS011;35317;51.978;6.296;2023-07-13T13:22:55;2.92;;;1.35;;
49440;SDS011;35317;51.978;6.296;2023-07-13T13:27:56;1.40;;;1.10;;
49440;SDS011;35317;51.978;6.296;2023-07-13T13:32:57;3.00;;;1.55;;
49440;SDS011;35317;51.978;6.296;2023-07-13T13:37:58;3.42;;;1.70;;
49440;SDS011;35317;51.978;6.296;2023-07-13T13:42:59;2.10;;;1.77;;
49440;SDS011;35317;51.978;6.296;2023-07-13T13:48:00;4.15;;;1.70;;
49440;SDS011;35317;51.978;6.296;2023-07-13T13:53:01;3.90;;;1.77;;
49440;SDS011;35317;51.978;6.296;2023-07-13T13:58:02;4.50;;;1.85;;
49440;SDS011;35317;51.978;6.296;2023-07-13T14:03:03;3.45;;;1.60;;
49440;SDS011;35317;51.978;6.296;2023-07-13T14:08:20;4.22;;;2.05;;
49440;SDS011;35317;51.978;6.296;2023-07-13T14:13:28;4.45;;;1.70;;
49440;SDS011;35317;51.978;6.296;2023-07-13T14:18:34;4.57;;;1.83;;
49440;SDS011;35317;51.978;6.296;2023-07-13T14:23:35;4.72;;;2.20;;
49440;SDS011;35317;51.978;6.296;2023-07-13T14:28:36;4.47;;;2.50;;
49440;SDS011;35317;51.978;6.296;2023-07-13T14:33:43;3.92;;;2.15;;
49440;SDS011;35317;51.978;6.296;2023-07-13T14:38:45;6.07;;;2.90;;
49440;SDS011;35317;51.978;6.296;2023-07-13T14:43:46;3.80;;;2.45;;
49440;SDS011;35317;51.978;6.296;2023-07-13T14:48:48;5.15;;;2.92;;
49440;SDS011;35317;51.978;6.296;2023-07-13T14:53:49;4.05;;;2.35;;
49440;SDS011;35317;51.978;6.296;2023-07-13T14:58:51;3.45;;;1.92;;
49440;SDS011;35317;51.978;6.296;2023-07-13T15:03:53;4.45;;;2.30;;
49440;SDS011;35317;51.978;6.296;2023-07-13T15:08:54;5.55;;;2.30;;
49440;SDS011;35317;51.978;6.296;2023-07-13T15:13:56;3.70;;;1.98;;
49440;SDS011;35317;51.978;6.296;2023-07-13T15:18:57;4.10;;;2.08;;
49440;SDS011;35317;51.978;6.296;2023-07-13T15:23:59;6.55;;;2.50;;
49440;SDS011;35317;51.978;6.296;2023-07-13T15:29:00;4.13;;;2.22;;
49440;SDS011;35317;51.978;6.296;2023-07-13T15:34:04;6.45;;;2.20;;
49440;SDS011;35317;51.978;6.296;2023-07-13T15:39:15;2.85;;;1.30;;
49440;SDS011;35317;51.978;6.296;2023-07-13T15:44:27;3.88;;;1.73;;
49440;SDS011;35317;51.978;6.296;2023-07-13T15:49:30;2.60;;;1.15;;
49440;SDS011;35317;51.978;6.296;2023-07-13T15:54:31;4.32;;;1.73;;
49440;SDS011;35317;51.978;6.296;2023-07-13T15:59:32;4.70;;;1.88;;
49440;SDS011;35317;51.978;6.296;2023-07-13T16:04:33;4.90;;;1.55;;
49440;SDS011;35317;51.978;6.296;2023-07-13T16:09:35;3.90;;;1.45;;
49440;SDS011;35317;51.978;6.296;2023-07-13T16:14:37;4.05;;;1.33;;
49440;SDS011;35317;51.978;6.296;2023-07-13T16:19:40;2.55;;;1.60;;
49440;SDS011;35317;51.978;6.296;2023-07-13T16:24:42;4.50;;;1.20;;
49440;SDS011;35317;51.978;6.296;2023-07-13T16:29:45;1.70;;;1.13;;
49440;SDS011;35317;51.978;6.296;2023-07-13T16:34:46;2.50;;;1.35;;
49440;SDS011;35317;51.978;6.296;2023-07-13T16:39:51;2.38;;;1.42;;
49440;SDS011;35317;51.978;6.296;2023-07-13T16:44:58;3.28;;;1.30;;
49440;SDS011;35317;51.978;6.296;2023-07-13T16:49:59;3.75;;;1.20;;
49440;SDS011;35317;51.978;6.296;2023-07-13T16:55:04;1.60;;;1.30;;
49440;SDS011;35317;51.978;6.296;2023-07-13T17:00:10;3.47;;;1.40;;
49440;SDS011;35317;51.978;6.296;2023-07-13T17:05:30;1.85;;;1.30;;
49440;SDS011;35317;51.978;6.296;2023-07-13T17:10:43;3.67;;;1.33;;
49440;SDS011;35317;51.978;6.296;2023-07-13T17:15:45;1.50;;;1.20;;
49440;SDS011;35317;51.978;6.296;2023-07-13T17:20:56;3.28;;;1.35;;
49440;SDS011;35317;51.978;6.296;2023-07-13T17:25:57;4.10;;;1.52;;
49440;SDS011;35317;51.978;6.296;2023-07-13T17:30:58;2.70;;;1.40;;
49440;SDS011;35317;51.978;6.296;2023-07-13T17:36:01;2.55;;;1.25;;
49440;SDS011;35317;51.978;6.296;2023-07-13T17:41:08;3.40;;;1.10;;
49440;SDS011;35317;51.978;6.296;2023-07-13T17:46:15;1.25;;;1.10;;
49440;SDS011;35317;51.978;6.296;2023-07-13T17:51:21;1.88;;;1.05;;
49440;SDS011;35317;51.978;6.296;2023-07-13T17:56:23;2.97;;;1.50;;
49440;SDS011;35317;51.978;6.296;2023-07-13T18:01:25;1.80;;;0.95;;
49440;SDS011;35317;51.978;6.296;2023-07-13T18:06:33;2.83;;;1.30;;
49440;SDS011;35317;51.978;6.296;2023-07-13T18:11:37;2.15;;;1.30;;
49440;SDS011;35317;51.978;6.296;2023-07-13T18:16:39;3.10;;;1.50;;
49440;SDS011;35317;51.978;6.296;2023-07-13T18:22:38;4.10;;;1.58;;
49440;SDS011;35317;51.978;6.296;2023-07-13T18:27:39;1.88;;;1.30;;
49440;SDS011;35317;51.978;6.296;2023-07-13T18:32:41;2.33;;;1.40;;
49440;SDS011;35317;51.978;6.296;2023-07-13T18:37:48;5.43;;;1.75;;
49440;SDS011;35317;51.978;6.296;2023-07-13T18:42:49;2.70;;;1.40;;
49440;SDS011;35317;51.978;6.296;2023-07-13T18:47:52;1.95;;;1.25;;
49440;SDS011;35317;51.978;6.296;2023-07-13T18:52:56;2.25;;;1.52;;
49440;SDS011;35317;51.978;6.296;2023-07-13T18:57:57;2.95;;;1.70;;
49440;SDS011;35317;51.978;6.296;2023-07-13T19:02:59;5.50;;;1.77;;
49440;SDS011;35317;51.978;6.296;2023-07-13T19:08:01;2.90;;;1.98;;
49440;SDS011;35317;51.978;6.296;2023-07-13T19:13:04;1.50;;;1.40;;
49440;SDS011;35317;51.978;6.296;2023-07-13T19:18:11;4.60;;;1.52;;
49440;SDS011;35317;51.978;6.296;2023-07-13T19:23:18;3.75;;;1.73;;
49440;SDS011;35317;51.978;6.296;2023-07-13T19:28:37;3.97;;;2.00;;
49440;SDS011;35317;51.978;6.296;2023-07-13T19:33:40;4.65;;;2.30;;
49440;SDS011;35317;51.978;6.296;2023-07-13T19:38:42;4.70;;;2.20;;
49440;SDS011;35317;51.978;6.296;2023-07-13T19:43:44;3.78;;;2.40;;
49440;SDS011;35317;51.978;6.296;2023-07-13T19:48:47;4.87;;;2.10;;
49440;SDS011;35317;51.978;6.296;2023-07-13T19:53:53;4.15;;;2.03;;
49440;SDS011;35317;51.978;6.296;2023-07-13T20:04:26;8.32;;;2.38;;
49440;SDS011;35317;51.978;6.296;2023-07-13T20:09:28;5.05;;;2.15;;
49440;SDS011;35317;51.978;6.296;2023-07-13T20:14:34;3.95;;;2.20;;
49440;SDS011;35317;51.978;6.296;2023-07-13T20:19:35;3.40;;;2.47;;
49440;SDS011;35317;51.978;6.296;2023-07-13T20:24:36;4.18;;;2.70;;
49440;SDS011;35317;51.978;6.296;2023-07-13T20:29:38;7.60;;;3.45;;
49440;SDS011;35317;51.978;6.296;2023-07-13T20:34:39;6.43;;;2.95;;
49440;SDS011;35317;51.978;6.296;2023-07-13T20:39:41;5.63;;;3.60;;
49440;SDS011;35317;51.978;6.296;2023-07-13T20:44:42;6.90;;;3.92;;
49440;SDS011;35317;51.978;6.296;2023-07-13T20:49:43;5.78;;;4.25;;
49440;SDS011;35317;51.978;6.296;2023-07-13T20:54:44;5.38;;;4.07;;
49440;SDS011;35317;51.978;6.296;2023-07-13T20:59:51;5.93;;;4.10;;
49440;SDS011;35317;51.978;6.296;2023-07-13T21:04:53;6.53;;;3.78;;
49440;SDS011;35317;51.978;6.296;2023-07-13T21:09:54;5.80;;;3.65;;
49440;SDS011;35317;51.978;6.296;2023-07-13T21:14:57;6.82;;;4.10;;
49440;SDS011;35317;51.978;6.296;2023-07-13T21:19:58;6.85;;;4.13;;
49440;SDS011;35317;51.978;6.296;2023-07-13T21:24:59;6.85;;;4.57;;
49440;SDS011;35317;51.978;6.296;2023-07-13T21:30:00;7.85;;;4.78;;
49440;SDS011;35317;51.978;6.296;2023-07-13T21:35:01;8.88;;;4.90;;
49440;SDS011;35317;51.978;6.296;2023-07-13T21:40:08;9.77;;;4.68;;
49440;SDS011;35317;51.978;6.296;2023-07-13T21:45:23;8.60;;;5.10;;
49440;SDS011;35317;51.978;6.296;2023-07-13T21:50:33;9.40;;;5.47;;
49440;SDS011;35317;51.978;6.296;2023-07-13T21:55:37;9.95;;;5.60;;
49440;SDS011;35317;51.978;6.296;2023-07-13T22:00:38;9.90;;;5.30;;
49440;SDS011;35317;51.978;6.296;2023-07-13T22:05:39;7.60;;;5.28;;
49440;SDS011;35317;51.978;6.296;2023-07-13T22:10:45;9.93;;;5.70;;
49440;SDS011;35317;51.978;6.296;2023-07-13T22:15:46;9.65;;;5.80;;
49440;SDS011;35317;51.978;6.296;2023-07-13T22:20:50;10.32;;;5.78;;
49440;SDS011;35317;51.978;6.296;2023-07-13T22:25:53;7.18;;;5.07;;
49440;SDS011;35317;51.978;6.296;2023-07-13T22:30:56;11.45;;;7.50;;
49440;SDS011;35317;51.978;6.296;2023-07-13T22:35:59;35.47;;;22.42;;
49440;SDS011;35317;51.978;6.296;2023-07-13T22:41:00;23.38;;;15.60;;
49440;SDS011;35317;51.978;6.296;2023-07-13T22:46:02;11.50;;;6.80;;
49440;SDS011;35317;51.978;6.296;2023-07-13T22:51:09;8.10;;;5.20;;
49440;SDS011;35317;51.978;6.296;2023-07-13T22:56:13;9.52;;;6.10;;
49440;SDS011;35317;51.978;6.296;2023-07-13T23:01:16;12.30;;;6.72;;
49440;SDS011;35317;51.978;6.296;2023-07-13T23:06:27;13.35;;;7.90;;
49440;SDS011;35317;51.978;6.296;2023-07-13T23:11:33;11.07;;;7.38;;
49440;SDS011;35317;51.978;6.296;2023-07-13T23:16:34;9.85;;;7.03;;
49440;SDS011;35317;51.978;6.296;2023-07-13T23:21:36;15.20;;;8.38;;
49440;SDS011;35317;51.978;6.296;2023-07-13T23:26:37;14.05;;;8.30;;
49440;SDS011;35317;51.978;6.296;2023-07-13T23:31:38;16.05;;;8.25;;
49440;SDS011;35317;51.978;6.296;2023-07-13T23:36:39;23.08;;;9.77;;
49440;SDS011;35317;51.978;6.296;2023-07-13T23:41:40;11.50;;;8.25;;
49440;SDS011;35317;51.978;6.296;2023-07-13T23:46:43;12.43;;;7.57;;
49440;SDS011;35317;51.978;6.296;2023-07-13T23:51:51;11.40;;;7.22;;
49440;SDS011;35317;51.978;6.296;2023-07-13T23:56:58;13.90;;;7.90;;
